Airfield :
LOGIN :

Register | Disclaimer

   EN    FR    IT 

 










Legend :    VFR   Marginal VFR   IFR   Intensive IFR   Very Intensive IFR
Visi :
Ceiling :
>= 8 km
>= 3000ft
5 to 8 km
1000 to 3000 ft
1500m to 5 km
500 to 1000 ft
800 to 1500m
200 to 500 ft
< 800m
< 200 ft
Symbols :   Thunderstorms  Fog  Heavy snow  Heavy precipitations  Wind > 20 kt
SIGMETs :     Misc.  Thunderstorms  Icing  Turbulence  Mountain Waves  Volcanic Ashes







- Airport Elevation : 286 ft
- IATA code : FFD


EGVA - RAF Fairford

CURRENT METAR :
  • 250456Z AUTO 06004KT 9999 CLR 16/12 A3001 RMK AO2 DZB02E06RAB06E25DZB25E38RAB38E48DZB48E55 SLP162 P0000 T01550117 $

EXPIRED METARs :
  • 250402Z AUTO 09004KT 9999 -DZ FEW100 BKN170 15/12 A3001 RMK AO2 DZB02 SLP163 $
  • 250351Z AUTO 09003KT 9999 SCT110 BKN170 16/12 A3001 RMK AO2 RAB29E36DZB36E51 SLP162 $
  • 250329Z AUTO 06005KT 9999 -RA SCT110 BKN160 BKN200 16/12 A3001 RMK AO2 RAB29 SLP162 $
  • 250256Z AUTO 05004KT 9999 SCT100 16/12 A3001 RMK AO2 SLP162 T01580116 58005 $

Expired Forecast.
No reported NOTAMs for that airfield.



MET'MAP, your aeronautical weather chart ! - Copyright ORBIFLY December 2007 - Disclaimer

ORBIFLY MET'MAP TEAM :

Programming & Development : Alexandra Zaïnal
Concept & Development : Baudouin d'Aumeries
Co-Development & Prog : Marc-Olivier Méhu
Technical & hardware support : Manuel Goepfert

Contact : metmap@orbifly.com




SOURCES & CREDITS :

   NOAA